Time;durP1;ratioP1;P1;durP2;ratioP2;P2;SDS_P1;SDS_P2;PMS_P1;PMS_P2;Temp;Humidity;BMP_temperature;BMP_pressure;BME280_temperature;BME280_humidity;BME280_pressure;Samples;Min_cycle;Max_cycle;Signal;HPM_P1;HPM_P2
2021/08/29 00:00:51;;;;;;;2.13;1.20;;;15.00;99.90;;;;;;4927509;29;20274;-94
2021/08/29 00:03:17;;;;;;;1.80;1.30;;;15.00;99.90;;;;;;4926871;29;20183;-95
2021/08/29 00:05:43;;;;;;;2.92;1.25;;;15.00;99.90;;;;;;4927135;29;20185;-95
2021/08/29 00:08:10;;;;;;;2.92;1.20;;;15.00;99.90;;;;;;4926833;29;20185;-95
2021/08/29 00:10:41;;;;;;;3.40;1.50;;;15.00;99.90;;;;;;4927848;29;20206;-95
2021/08/29 00:13:19;;;;;;;1.33;1.23;;;14.90;99.90;;;;;;4927938;29;20183;-96
2021/08/29 00:15:46;;;;;;;2.78;1.27;;;15.00;99.90;;;;;;4927142;29;20182;-95
2021/08/29 00:18:13;;;;;;;1.52;1.42;;;15.00;99.90;;;;;;4927939;29;20186;-95
2021/08/29 00:20:39;;;;;;;2.00;1.40;;;15.00;99.90;;;;;;4927431;29;20278;-95
2021/08/29 00:23:06;;;;;;;2.95;1.50;;;14.90;99.90;;;;;;4927566;29;20174;-94
2021/08/29 00:25:49;;;;;;;1.58;1.40;;;15.00;99.90;;;;;;4928689;29;20179;-96
2021/08/29 00:28:17;;;;;;;1.92;1.20;;;15.00;99.90;;;;;;4929239;29;20183;-95
2021/08/29 00:33:20;;;;;;;2.92;1.60;;;15.00;99.90;;;;;;5173857;23;20613;-96
2021/08/29 00:35:52;;;;;;;1.48;1.38;;;15.00;99.90;;;;;;4925853;29;20201;-96
2021/08/29 00:38:20;;;;;;;4.50;1.60;;;15.00;99.90;;;;;;4923627;29;20194;-95
2021/08/29 00:40:54;;;;;;;6.85;1.60;;;15.00;99.90;;;;;;4922954;29;20210;-94
2021/08/29 00:43:26;;;;;;;2.95;1.50;;;15.00;99.90;;;;;;4922991;29;20182;-95
2021/08/29 00:45:53;;;;;;;3.08;1.33;;;15.10;99.90;;;;;;4922894;29;20265;-93
2021/08/29 00:48:21;;;;;;;2.35;1.60;;;15.00;99.90;;;;;;4922473;29;20197;-94
2021/08/29 00:50:48;;;;;;;2.75;1.80;;;15.00;99.90;;;;;;4922188;29;20325;-94
2021/08/29 00:53:18;;;;;;;1.85;1.40;;;15.00;99.90;;;;;;4923358;29;20186;-94
2021/08/29 00:55:46;;;;;;;6.07;1.42;;;15.00;99.90;;;;;;4923263;29;20185;-95
2021/08/29 00:58:12;;;;;;;1.33;1.20;;;15.00;99.90;;;;;;4922739;29;20246;-94
2021/08/29 01:00:41;;;;;;;1.70;1.60;;;15.00;99.90;;;;;;4922925;29;20305;-95
2021/08/29 01:03:14;;;;;;;2.13;1.42;;;14.90;99.90;;;;;;4922466;29;20191;-96
2021/08/29 01:05:50;;;;;;;3.35;1.60;;;14.90;99.90;;;;;;4923065;29;20633;-94
2021/08/29 01:08:18;;;;;;;1.75;1.65;;;14.90;99.90;;;;;;4922975;29;20271;-94
2021/08/29 01:10:57;;;;;;;2.67;2.15;;;14.90;99.90;;;;;;4922971;29;20198;-95
2021/08/29 01:13:35;;;;;;;2.03;1.83;;;15.00;99.90;;;;;;4922870;29;20175;-94
2021/08/29 01:16:06;;;;;;;2.70;2.00;;;14.90;99.90;;;;;;4925502;29;20297;-92
2021/08/29 01:18:39;;;;;;;4.57;2.20;;;14.90;99.90;;;;;;4926098;29;20222;-95
2021/08/29 01:21:11;;;;;;;4.63;2.25;;;14.90;99.90;;;;;;4926499;29;20210;-94
2021/08/29 01:23:40;;;;;;;3.25;2.42;;;14.80;99.90;;;;;;4926124;29;20191;-95
2021/08/29 01:26:26;;;;;;;5.15;2.60;;;14.80;99.90;;;;;;4926381;29;20183;-95
2021/08/29 01:29:06;;;;;;;2.75;2.50;;;14.90;99.90;;;;;;4926708;29;20183;-94
2021/08/29 01:31:36;;;;;;;5.28;2.63;;;14.90;99.90;;;;;;4926424;29;20217;-95
2021/08/29 01:34:10;;;;;;;4.93;2.75;;;14.90;99.90;;;;;;4926504;29;20641;-94
2021/08/29 01:36:44;;;;;;;3.42;2.50;;;14.90;99.90;;;;;;4925916;29;20233;-96
2021/08/29 01:39:12;;;;;;;6.50;2.63;;;15.00;99.90;;;;;;4925823;29;20179;-94
2021/08/29 01:41:43;;;;;;;7.65;2.55;;;14.90;99.90;;;;;;4927489;29;20248;-95
2021/08/29 01:44:11;;;;;;;5.60;2.80;;;14.90;99.90;;;;;;4928021;29;20199;-94
2021/08/29 01:46:40;;;;;;;3.60;2.50;;;14.90;99.90;;;;;;4926631;29;20194;-94
2021/08/29 01:49:08;;;;;;;3.45;2.35;;;14.90;99.90;;;;;;4927724;29;20182;-95
2021/08/29 01:51:35;;;;;;;4.68;2.55;;;14.90;99.90;;;;;;4927828;29;20210;-94
2021/08/29 01:54:04;;;;;;;3.47;2.60;;;14.90;99.90;;;;;;4928742;29;20183;-95
2021/08/29 01:56:30;;;;;;;3.63;2.50;;;14.90;99.90;;;;;;4927964;29;20214;-95
2021/08/29 01:58:57;;;;;;;3.80;2.78;;;14.80;99.90;;;;;;4928561;29;20218;-95
2021/08/29 02:01:23;;;;;;;5.03;2.60;;;14.90;99.90;;;;;;4927063;29;20227;-94
2021/08/29 02:03:50;;;;;;;4.78;2.40;;;14.80;99.90;;;;;;4926916;29;20187;-94
2021/08/29 02:06:30;;;;;;;3.40;2.92;;;14.90;99.90;;;;;;4927822;29;20268;-94
2021/08/29 02:09:04;;;;;;;3.95;3.30;;;14.90;99.90;;;;;;4928149;29;20201;-94
2021/08/29 02:11:39;;;;;;;3.88;3.10;;;14.80;99.90;;;;;;4926517;29;20221;-95
2021/08/29 02:14:10;;;;;;;4.03;2.65;;;14.90;99.90;;;;;;4926441;29;20205;-96
2021/08/29 02:16:42;;;;;;;5.25;3.42;;;14.80;99.90;;;;;;4927407;29;20222;-95
2021/08/29 02:19:11;;;;;;;4.60;3.25;;;14.80;99.90;;;;;;4926707;29;20182;-95
2021/08/29 02:21:37;;;;;;;6.00;3.60;;;14.90;99.90;;;;;;4925672;29;20214;-95
2021/08/29 02:24:04;;;;;;;5.88;3.72;;;14.80;99.90;;;;;;4926690;29;20179;-95
2021/08/29 02:26:31;;;;;;;4.50;3.25;;;14.80;99.90;;;;;;4927141;29;20206;-96
2021/08/29 02:28:58;;;;;;;4.15;3.65;;;14.80;99.90;;;;;;4926966;29;20202;-95
2021/08/29 02:31:25;;;;;;;3.70;3.08;;;14.80;99.90;;;;;;4928206;29;20234;-94
2021/08/29 02:33:51;;;;;;;5.05;3.63;;;14.70;99.90;;;;;;4927579;29;20230;-94
2021/08/29 02:36:19;;;;;;;4.05;3.17;;;14.80;99.90;;;;;;4927490;29;20214;-94
2021/08/29 02:38:49;;;;;;;5.18;3.60;;;14.80;99.90;;;;;;4927590;29;20179;-96
2021/08/29 02:41:17;;;;;;;6.50;3.40;;;14.80;99.90;;;;;;4926545;29;20226;-95
2021/08/29 02:43:46;;;;;;;6.10;3.50;;;14.70;99.90;;;;;;4928903;29;20217;-96
2021/08/29 02:46:13;;;;;;;4.47;3.72;;;14.70;99.90;;;;;;4912789;29;20645;-95
2021/08/29 02:48:44;;;;;;;5.70;3.92;;;14.70;99.90;;;;;;4929060;29;20186;-96
2021/08/29 02:51:14;;;;;;;7.22;3.50;;;14.70;99.90;;;;;;4926321;29;20245;-96
2021/08/29 02:53:43;;;;;;;6.18;3.45;;;14.70;99.90;;;;;;4926480;29;20186;-96
2021/08/29 02:56:12;;;;;;;4.43;3.70;;;14.70;99.90;;;;;;4927154;29;20206;-94
2021/08/29 02:58:40;;;;;;;4.88;3.95;;;14.70;99.90;;;;;;4927275;29;20187;-95
2021/08/29 03:01:07;;;;;;;3.67;3.38;;;14.70;99.90;;;;;;4926478;29;20225;-95
2021/08/29 03:03:34;;;;;;;7.03;3.53;;;14.70;99.90;;;;;;4925452;29;20187;-94
2021/08/29 03:06:00;;;;;;;4.25;3.50;;;14.70;99.90;;;;;;4925277;29;20237;-95
2021/08/29 03:08:27;;;;;;;4.40;3.88;;;14.70;99.90;;;;;;4926768;29;20190;-95
2021/08/29 03:10:53;;;;;;;4.88;4.32;;;14.70;99.90;;;;;;4925246;29;20214;-95
2021/08/29 03:13:20;;;;;;;7.43;3.83;;;14.70;99.90;;;;;;4926669;29;20191;-94
2021/08/29 03:15:47;;;;;;;4.40;3.97;;;14.70;99.90;;;;;;4926383;29;20191;-95
2021/08/29 03:18:13;;;;;;;4.00;3.60;;;14.70;99.90;;;;;;4924530;29;20705;-95
2021/08/29 03:20:41;;;;;;;7.90;4.43;;;14.80;99.90;;;;;;4925134;29;20349;-94
2021/08/29 03:23:08;;;;;;;4.80;4.30;;;14.70;99.90;;;;;;4926197;29;20198;-95
2021/08/29 03:25:36;;;;;;;8.43;4.40;;;14.70;99.90;;;;;;4928549;29;20187;-94
2021/08/29 03:28:05;;;;;;;5.53;4.40;;;14.70;99.90;;;;;;4927479;29;20197;-94
2021/08/29 03:30:32;;;;;;;6.85;4.05;;;14.70;99.90;;;;;;4926557;29;20238;-96
2021/08/29 03:32:59;;;;;;;5.57;3.95;;;14.70;99.90;;;;;;4926474;29;20280;-94
2021/08/29 03:35:27;;;;;;;5.95;4.35;;;14.70;99.90;;;;;;4926588;29;20214;-94
2021/08/29 03:37:55;;;;;;;4.72;4.20;;;14.70;99.90;;;;;;4927765;29;20220;-95
2021/08/29 03:40:22;;;;;;;4.90;4.38;;;14.60;99.90;;;;;;4929315;29;20182;-95
2021/08/29 03:42:50;;;;;;;5.03;4.45;;;14.60;99.90;;;;;;4928819;29;20246;-94
2021/08/29 03:45:17;;;;;;;6.43;4.38;;;14.60;99.90;;;;;;4926572;29;20652;-94
2021/08/29 03:47:45;;;;;;;4.90;4.50;;;14.60;99.90;;;;;;4926129;29;20264;-95
2021/08/29 03:50:13;;;;;;;6.10;4.47;;;14.60;99.90;;;;;;4925097;29;20182;-94
2021/08/29 03:52:39;;;;;;;4.88;4.45;;;14.70;99.90;;;;;;4925009;29;20187;-95
2021/08/29 03:55:07;;;;;;;8.30;4.63;;;14.70;99.90;;;;;;4925187;29;20186;-95
2021/08/29 03:57:33;;;;;;;5.15;4.50;;;14.70;99.90;;;;;;4923323;29;20214;-93
2021/08/29 04:00:21;;;;;;;6.75;4.45;;;14.70;99.90;;;;;;4924918;29;20183;-95
2021/08/29 04:02:47;;;;;;;4.95;3.95;;;14.70;99.90;;;;;;4924577;29;20191;-94
2021/08/29 04:05:13;;;;;;;5.50;4.07;;;14.80;99.90;;;;;;4924772;29;20191;-95
2021/08/29 04:07:40;;;;;;;4.82;4.05;;;14.70;99.90;;;;;;4924828;29;20189;-95
2021/08/29 04:10:08;;;;;;;4.75;3.72;;;14.70;99.90;;;;;;4926113;29;20182;-94
2021/08/29 04:12:40;;;;;;;3.90;3.50;;;14.80;99.90;;;;;;4925495;29;20250;-95
2021/08/29 04:15:07;;;;;;;4.78;3.95;;;14.70;99.90;;;;;;4924020;29;20210;-94
2021/08/29 04:17:37;;;;;;;4.47;4.07;;;14.60;99.90;;;;;;4923334;29;20207;-94
2021/08/29 04:20:04;;;;;;;4.03;3.53;;;14.70;99.90;;;;;;4924311;29;20273;-94
2021/08/29 04:22:31;;;;;;;4.05;3.55;;;14.70;99.90;;;;;;4923706;29;20235;-95
2021/08/29 04:24:57;;;;;;;4.30;3.88;;;14.60;99.90;;;;;;4925182;29;20270;-96
2021/08/29 04:27:24;;;;;;;3.95;3.60;;;14.60;99.90;;;;;;4923896;29;20198;-93
2021/08/29 04:29:50;;;;;;;3.88;3.58;;;14.70;99.90;;;;;;4924707;29;20641;-96
2021/08/29 04:32:19;;;;;;;5.35;3.83;;;14.60;99.90;;;;;;4924604;29;20234;-95
2021/08/29 04:34:45;;;;;;;4.10;3.80;;;14.60;99.90;;;;;;4924695;29;20277;-94
2021/08/29 04:37:10;;;;;;;4.78;3.63;;;14.60;99.90;;;;;;4923251;29;20233;-94
2021/08/29 04:39:40;;;;;;;4.60;3.78;;;14.60;99.90;;;;;;4924441;29;20277;-93
2021/08/29 04:42:08;;;;;;;4.40;4.00;;;14.60;99.90;;;;;;4925207;29;20293;-95
2021/08/29 04:44:33;;;;;;;5.45;3.88;;;14.60;99.90;;;;;;4924688;29;20225;-94
2021/08/29 04:46:59;;;;;;;6.50;3.80;;;14.60;99.90;;;;;;4924467;29;20183;-95
2021/08/29 04:49:25;;;;;;;7.55;4.22;;;14.60;99.90;;;;;;4925711;29;20246;-94
2021/08/29 04:51:51;;;;;;;4.47;3.60;;;14.60;99.90;;;;;;4927244;29;20210;-94
2021/08/29 04:54:17;;;;;;;4.20;3.22;;;14.60;99.90;;;;;;4928762;29;20194;-95
2021/08/29 04:56:43;;;;;;;4.15;3.75;;;14.70;99.90;;;;;;4927090;29;20214;-95
2021/08/29 04:59:09;;;;;;;4.13;3.60;;;14.70;99.90;;;;;;4926994;29;20193;-94
2021/08/29 05:01:36;;;;;;;5.72;4.03;;;14.60;99.90;;;;;;4927593;29;20297;-94
2021/08/29 05:04:02;;;;;;;7.75;4.20;;;14.60;99.90;;;;;;4927261;29;20183;-95
2021/08/29 05:06:29;;;;;;;4.25;3.85;;;14.60;99.90;;;;;;4927752;29;20210;-95
2021/08/29 05:08:55;;;;;;;5.78;3.80;;;14.60;99.90;;;;;;4928089;29;20198;-94
2021/08/29 05:11:22;;;;;;;4.80;3.90;;;14.60;99.90;;;;;;4927919;29;20215;-95
2021/08/29 05:13:50;;;;;;;4.40;4.00;;;14.60;99.90;;;;;;4926792;29;20674;-95
2021/08/29 05:16:18;;;;;;;4.35;3.95;;;14.60;99.90;;;;;;4927597;29;20239;-94
2021/08/29 05:18:44;;;;;;;6.60;3.95;;;14.60;99.90;;;;;;4926588;29;20198;-94
2021/08/29 05:21:11;;;;;;;4.32;3.50;;;14.60;99.90;;;;;;4927493;29;20218;-94
2021/08/29 05:23:37;;;;;;;5.15;3.90;;;14.60;99.90;;;;;;4929039;29;20254;-94
2021/08/29 05:26:05;;;;;;;4.75;4.20;;;14.60;99.90;;;;;;4929125;29;20242;-95
2021/08/29 05:28:34;;;;;;;4.13;3.60;;;14.60;99.90;;;;;;4928246;29;20186;-96
2021/08/29 05:31:00;;;;;;;3.97;3.50;;;14.60;99.90;;;;;;4927902;29;20727;-95
2021/08/29 05:33:26;;;;;;;5.25;3.72;;;14.60;99.90;;;;;;4928888;29;20309;-95
2021/08/29 05:35:52;;;;;;;4.07;3.47;;;14.70;99.90;;;;;;4928894;29;20645;-96
2021/08/29 05:38:18;;;;;;;4.32;3.30;;;14.70;99.90;;;;;;4927219;29;20550;-93
2021/08/29 05:40:44;;;;;;;6.50;3.50;;;14.70;99.90;;;;;;4927152;29;20214;-94
2021/08/29 05:43:16;;;;;;;7.63;3.90;;;14.70;99.90;;;;;;4927279;29;20178;-95
2021/08/29 05:45:42;;;;;;;5.25;3.50;;;14.60;99.90;;;;;;4927374;29;20268;-94
2021/08/29 05:48:08;;;;;;;3.78;3.38;;;14.70;99.90;;;;;;4928596;29;20207;-94
2021/08/29 05:50:40;;;;;;;3.90;3.50;;;14.70;99.90;;;;;;4927740;29;20384;-93
2021/08/29 05:53:07;;;;;;;5.95;3.30;;;14.80;99.90;;;;;;4926448;29;20191;-92
2021/08/29 05:55:33;;;;;;;5.20;3.10;;;14.80;99.90;;;;;;4925820;29;20186;-95
2021/08/29 05:57:59;;;;;;;3.95;3.30;;;14.80;99.90;;;;;;4925548;29;20696;-95
2021/08/29 06:00:26;;;;;;;4.95;3.53;;;14.70;99.90;;;;;;4925355;29;20183;-93
2021/08/29 06:02:52;;;;;;;3.50;2.80;;;14.80;99.90;;;;;;4926406;29;20183;-95
2021/08/29 06:05:19;;;;;;;4.15;3.10;;;14.80;99.90;;;;;;4925831;29;20246;-93
2021/08/29 06:07:45;;;;;;;3.10;2.80;;;14.80;99.90;;;;;;4925047;29;20319;-94
2021/08/29 06:10:12;;;;;;;4.07;2.85;;;14.80;99.90;;;;;;4925483;29;20218;-96
2021/08/29 06:12:38;;;;;;;4.03;3.63;;;14.70;99.90;;;;;;4925747;29;20179;-94
2021/08/29 06:15:06;;;;;;;4.90;2.78;;;14.70;99.90;;;;;;4926177;29;20194;-95
2021/08/29 06:17:32;;;;;;;2.95;2.65;;;14.80;99.90;;;;;;4926313;29;20225;-96
2021/08/29 06:19:58;;;;;;;2.90;2.60;;;14.80;99.90;;;;;;4927982;29;20197;-94
2021/08/29 06:22:23;;;;;;;2.83;2.63;;;14.80;99.90;;;;;;4928231;29;20297;-94
2021/08/29 06:24:49;;;;;;;3.10;2.80;;;14.80;99.90;;;;;;4926460;29;20659;-95
2021/08/29 06:27:15;;;;;;;4.53;2.65;;;14.80;99.90;;;;;;4925687;29;20183;-95
2021/08/29 06:29:42;;;;;;;2.80;2.40;;;14.80;99.90;;;;;;4927030;29;20266;-95
2021/08/29 06:32:09;;;;;;;4.32;2.38;;;14.80;99.90;;;;;;4925333;29;20230;-95
2021/08/29 06:34:35;;;;;;;3.60;1.90;;;14.80;99.90;;;;;;4924921;29;20190;-95
2021/08/29 06:37:10;;;;;;;4.10;2.08;;;14.80;99.90;;;;;;4924239;29;20214;-94
2021/08/29 06:39:36;;;;;;;2.47;2.03;;;14.80;99.90;;;;;;4924835;29;20419;-95
2021/08/29 06:42:02;;;;;;;3.00;2.35;;;14.90;99.90;;;;;;4924128;29;20210;-95
2021/08/29 06:44:28;;;;;;;3.45;2.45;;;14.80;99.90;;;;;;4925288;29;20188;-95
2021/08/29 06:46:55;;;;;;;1.80;1.70;;;14.80;99.90;;;;;;4924297;29;20186;-95
2021/08/29 06:49:21;;;;;;;2.30;2.10;;;14.80;99.90;;;;;;4925713;29;20246;-95
2021/08/29 06:51:58;;;;;;;2.63;1.90;;;14.80;99.90;;;;;;4924382;29;20214;-94
2021/08/29 06:54:27;;;;;;;1.83;1.73;;;14.80;99.90;;;;;;4925233;29;20186;-95
2021/08/29 06:56:56;;;;;;;2.97;1.90;;;14.80;99.90;;;;;;4925846;29;20221;-96
2021/08/29 06:59:22;;;;;;;2.40;1.65;;;14.80;99.90;;;;;;4924267;29;20250;-96
2021/08/29 07:01:48;;;;;;;3.90;1.85;;;14.80;99.90;;;;;;4924945;29;20664;-96
2021/08/29 07:04:24;;;;;;;3.05;1.70;;;14.70;99.90;;;;;;4924303;29;20254;-95
2021/08/29 07:06:56;;;;;;;4.18;1.55;;;14.80;99.90;;;;;;4924072;29;20186;-95
2021/08/29 07:09:42;;;;;;;3.67;1.50;;;14.80;99.90;;;;;;4923965;29;20194;-95
2021/08/29 07:12:16;;;;;;;2.55;1.40;;;14.80;99.90;;;;;;4920434;29;20206;-96
2021/08/29 07:14:54;;;;;;;2.35;1.50;;;14.90;99.90;;;;;;4919945;29;20190;-96
2021/08/29 07:17:20;;;;;;;2.17;1.17;;;14.90;99.90;;;;;;4920023;29;20206;-96
2021/08/29 07:20:06;;;;;;;2.25;1.30;;;14.90;99.90;;;;;;4921057;29;20214;-96
2021/08/29 07:22:54;;;;;;;2.28;1.27;;;14.90;99.90;;;;;;4923032;29;20218;-96
2021/08/29 07:25:21;;;;;;;1.50;1.10;;;14.90;99.90;;;;;;4922850;29;20546;-95
2021/08/29 07:27:48;;;;;;;1.70;1.20;;;14.90;99.90;;;;;;4923044;29;20196;-96
2021/08/29 07:30:13;;;;;;;2.22;1.13;;;14.90;99.90;;;;;;4924410;29;20242;-96
2021/08/29 07:32:41;;;;;;;3.97;1.00;;;14.90;99.90;;;;;;4919978;29;20230;-96
2021/08/29 07:35:08;;;;;;;1.10;0.90;;;14.90;99.90;;;;;;4921330;29;20197;-96
2021/08/29 07:37:47;;;;;;;1.52;1.10;;;14.90;99.90;;;;;;4919753;29;20301;-96
2021/08/29 07:50:23;;;;;;;1.48;0.70;;;15.00;99.90;;;;;;4923144;29;20195;-94
2021/08/29 07:52:52;;;;;;;1.33;0.98;;;15.00;99.90;;;;;;4923748;29;20247;-94
2021/08/29 07:55:22;;;;;;;1.90;0.82;;;15.00;99.90;;;;;;4923058;29;20728;-95
2021/08/29 07:57:51;;;;;;;1.40;0.90;;;15.00;99.90;;;;;;4924076;29;20222;-96
2021/08/29 08:00:23;;;;;;;3.28;1.00;;;15.00;99.90;;;;;;4925439;29;20191;-96
2021/08/29 08:02:52;;;;;;;2.20;1.00;;;15.00;99.90;;;;;;4924357;29;20254;-95
2021/08/29 08:05:29;;;;;;;1.13;0.93;;;15.10;99.90;;;;;;4923886;29;20553;-95
2021/08/29 08:08:04;;;;;;;1.65;1.00;;;15.10;99.90;;;;;;4923942;29;20193;-96
2021/08/29 08:10:33;;;;;;;4.75;1.13;;;15.00;99.90;;;;;;4927108;29;20551;-95
2021/08/29 08:13:12;;;;;;;1.17;0.95;;;15.00;99.90;;;;;;4909798;29;20225;-95
2021/08/29 08:15:50;;;;;;;1.98;0.90;;;15.10;99.90;;;;;;4923782;29;20193;-96
2021/08/29 08:19:00;;;;;;;1.35;0.80;;;15.10;99.90;;;;;;4926815;29;20194;-96
2021/08/29 08:21:27;;;;;;;1.27;0.90;;;15.10;99.90;;;;;;4925185;29;20226;-94
2021/08/29 08:23:54;;;;;;;2.88;1.10;;;15.20;99.90;;;;;;4922963;29;20179;-95
2021/08/29 08:26:21;;;;;;;1.67;0.98;;;15.20;99.90;;;;;;4922328;29;20193;-95
2021/08/29 08:28:47;;;;;;;1.10;0.70;;;15.20;99.90;;;;;;4924049;29;20186;-96
2021/08/29 08:31:16;;;;;;;0.95;0.70;;;15.20;99.90;;;;;;4924019;29;20309;-96
2021/08/29 08:33:49;;;;;;;2.35;1.10;;;15.20;99.90;;;;;;4922530;29;20298;-95
2021/08/29 08:36:16;;;;;;;1.25;0.63;;;15.30;99.90;;;;;;4925455;29;20210;-95
2021/08/29 08:38:47;;;;;;;1.08;0.80;;;15.30;99.90;;;;;;4924431;29;20174;-95
2021/08/29 08:41:17;;;;;;;1.70;0.85;;;15.30;99.90;;;;;;4926153;29;20213;-95
2021/08/29 08:43:47;;;;;;;1.80;0.80;;;15.40;99.90;;;;;;4924814;29;20290;-96
2021/08/29 08:46:21;;;;;;;0.68;0.68;;;15.40;99.90;;;;;;4924584;29;20186;-96
2021/08/29 08:48:50;;;;;;;2.05;0.93;;;15.50;99.90;;;;;;4924560;29;20285;-95
2021/08/29 08:51:29;;;;;;;1.75;0.70;;;15.60;99.90;;;;;;4925039;29;20301;-96
2021/08/29 08:53:58;;;;;;;0.80;0.70;;;15.60;99.90;;;;;;4924921;29;20186;-96
2021/08/29 08:56:25;;;;;;;1.45;0.75;;;15.70;99.90;;;;;;4924125;29;20210;-95
2021/08/29 08:58:58;;;;;;;0.60;0.60;;;15.60;99.90;;;;;;4925041;29;20517;-96
2021/08/29 09:01:25;;;;;;;3.15;0.93;;;15.70;99.90;;;;;;4923603;29;20210;-95
2021/08/29 09:03:52;;;;;;;1.42;0.70;;;15.60;99.90;;;;;;4923487;29;20181;-95
2021/08/29 09:06:21;;;;;;;0.80;0.80;;;15.60;99.90;;;;;;4924783;29;20272;-95
2021/08/29 09:08:50;;;;;;;1.02;0.60;;;15.60;99.90;;;;;;4925676;29;20190;-96
2021/08/29 09:11:17;;;;;;;1.23;0.80;;;15.60;99.90;;;;;;4926134;29;20210;-96
2021/08/29 09:13:46;;;;;;;1.38;0.80;;;15.60;99.90;;;;;;4926413;29;20203;-96
2021/08/29 09:16:16;;;;;;;0.88;0.70;;;15.60;99.90;;;;;;4926192;29;20301;-96
2021/08/29 09:18:55;;;;;;;0.80;0.70;;;15.60;99.90;;;;;;4926093;29;20187;-96
2021/08/29 09:21:37;;;;;;;2.05;0.82;;;15.60;99.90;;;;;;4926206;29;20214;-95
2021/08/29 09:24:12;;;;;;;1.13;0.88;;;15.60;99.90;;;;;;4927566;29;20211;-95
2021/08/29 09:26:46;;;;;;;1.25;0.80;;;15.60;99.90;;;;;;4926630;29;20190;-96
2021/08/29 09:29:23;;;;;;;0.85;0.80;;;15.70;99.90;;;;;;4925964;29;20198;-95
2021/08/29 09:31:50;;;;;;;1.73;0.90;;;15.70;99.90;;;;;;4926922;29;20295;-96
2021/08/29 09:34:22;;;;;;;1.17;0.80;;;15.70;99.90;;;;;;4928609;29;20193;-95
2021/08/29 09:36:58;;;;;;;0.93;0.70;;;15.70;99.90;;;;;;4931058;29;20217;-96
2021/08/29 09:39:24;;;;;;;1.48;0.73;;;15.70;99.90;;;;;;4931696;29;20182;-95
2021/08/29 09:42:03;;;;;;;0.70;0.70;;;15.70;99.90;;;;;;4930496;29;20236;-96
2021/08/29 09:44:33;;;;;;;1.42;0.98;;;15.80;99.90;;;;;;4931291;29;20182;-96
2021/08/29 09:47:03;;;;;;;1.23;0.77;;;15.80;99.90;;;;;;4932605;29;20209;-95
2021/08/29 09:49:35;;;;;;;0.82;0.80;;;15.80;99.90;;;;;;4931878;29;20731;-96
2021/08/29 09:52:06;;;;;;;0.77;0.77;;;15.90;99.90;;;;;;4930739;29;20624;-95
2021/08/29 09:54:41;;;;;;;1.65;0.85;;;16.00;99.90;;;;;;4930874;29;20624;-96
2021/08/29 09:57:13;;;;;;;0.80;0.73;;;16.00;99.90;;;;;;4933291;29;20221;-96
2021/08/29 09:59:40;;;;;;;0.90;0.80;;;16.00;99.90;;;;;;4931567;29;20195;-95
2021/08/29 10:02:12;;;;;;;0.82;0.82;;;16.00;99.90;;;;;;4931250;29;20206;-96
2021/08/29 10:04:40;;;;;;;2.90;0.80;;;16.10;99.90;;;;;;4930025;29;20182;-96
2021/08/29 10:07:12;;;;;;;2.97;0.70;;;16.10;99.90;;;;;;4931297;29;20189;-96
2021/08/29 10:09:39;;;;;;;1.30;0.88;;;16.10;99.90;;;;;;4930277;29;20187;-94
2021/08/29 10:12:06;;;;;;;0.70;0.68;;;16.20;99.90;;;;;;4931450;29;20205;-95
2021/08/29 10:14:33;;;;;;;2.75;1.25;;;16.30;99.90;;;;;;4927714;29;20241;-96
2021/08/29 10:17:00;;;;;;;1.10;0.90;;;16.40;99.90;;;;;;4925448;29;20214;-96
2021/08/29 10:19:28;;;;;;;0.93;0.80;;;16.40;99.90;;;;;;4929725;29;20200;-96
2021/08/29 10:21:57;;;;;;;0.98;0.77;;;16.40;99.90;;;;;;4930841;29;20206;-96
2021/08/29 10:24:27;;;;;;;1.20;0.93;;;16.50;99.90;;;;;;4931762;29;20185;-94
2021/08/29 10:27:04;;;;;;;1.90;0.90;;;16.40;99.90;;;;;;4931026;29;20217;-95
2021/08/29 10:29:43;;;;;;;0.88;0.80;;;16.40;99.90;;;;;;4931742;29;20281;-96
2021/08/29 10:32:34;;;;;;;3.28;1.65;;;16.50;99.90;;;;;;4929204;29;20234;-96
2021/08/29 10:35:14;;;;;;;1.63;1.25;;;16.50;99.90;;;;;;4931589;29;20205;-95
2021/08/29 10:37:46;;;;;;;2.25;1.40;;;16.50;99.90;;;;;;4931020;29;20218;-96
2021/08/29 10:40:18;;;;;;;1.20;0.80;;;16.60;99.90;;;;;;4929860;29;20672;-96
2021/08/29 10:42:53;;;;;;;0.80;0.73;;;16.60;99.90;;;;;;4931311;29;20225;-96
2021/08/29 10:45:22;;;;;;;0.70;0.70;;;16.60;99.90;;;;;;4931137;29;20181;-96
2021/08/29 10:47:58;;;;;;;1.25;0.70;;;16.60;99.90;;;;;;4929580;29;20256;-95
2021/08/29 10:50:27;;;;;;;1.58;0.73;;;16.60;99.90;;;;;;4929964;29;20284;-96
2021/08/29 10:53:17;;;;;;;0.90;0.55;;;16.60;99.90;;;;;;4932945;29;20254;-96
2021/08/29 10:56:14;;;;;;;0.68;0.68;;;16.60;99.90;;;;;;4931308;29;20186;-96
2021/08/29 11:01:52;;;;;;;1.42;0.80;;;16.70;99.90;;;;;;5024087;23;20305;-96
2021/08/29 11:04:22;;;;;;;1.00;0.70;;;16.70;99.90;;;;;;4914119;29;20274;-94
2021/08/29 11:07:06;;;;;;;1.77;0.88;;;16.80;99.90;;;;;;4923003;29;20675;-94
2021/08/29 11:09:41;;;;;;;1.00;0.80;;;16.80;99.90;;;;;;4914393;29;20179;-94
2021/08/29 11:12:18;;;;;;;0.75;0.75;;;16.90;99.90;;;;;;4912391;29;20210;-95
2021/08/29 11:14:49;;;;;;;0.70;0.70;;;16.90;99.90;;;;;;4913631;29;20187;-94
2021/08/29 11:17:23;;;;;;;1.23;0.80;;;16.90;99.90;;;;;;4912276;29;20210;-94
2021/08/29 11:20:02;;;;;;;2.80;0.80;;;16.90;99.90;;;;;;4911995;29;20174;-96
2021/08/29 11:22:52;;;;;;;1.98;0.80;;;17.00;99.90;;;;;;4912468;29;20206;-94
2021/08/29 11:25:25;;;;;;;1.15;0.95;;;17.00;99.90;;;;;;4913884;29;20197;-95
2021/08/29 11:28:01;;;;;;;0.75;0.70;;;17.00;99.90;;;;;;4912662;29;20219;-95
2021/08/29 11:30:36;;;;;;;0.70;0.63;;;17.00;99.90;;;;;;4911827;29;20186;-93
2021/08/29 11:33:15;;;;;;;2.38;0.80;;;17.10;99.90;;;;;;4912654;29;20218;-96
2021/08/29 11:36:04;;;;;;;0.70;0.70;;;17.10;99.90;;;;;;4911825;29;20273;-94
2021/08/29 11:38:39;;;;;;;0.73;0.70;;;17.20;99.90;;;;;;4912798;29;20186;-94
2021/08/29 11:41:12;;;;;;;0.77;0.77;;;17.10;99.90;;;;;;4910600;29;20218;-96
2021/08/29 11:43:47;;;;;;;0.85;0.85;;;17.10;99.90;;;;;;4912295;29;20186;-95
2021/08/29 11:46:22;;;;;;;1.15;0.93;;;17.00;99.90;;;;;;4913475;29;20191;-95
2021/08/29 11:49:23;;;;;;;4.63;0.80;;;17.00;99.90;;;;;;4912643;29;20178;-95
2021/08/29 11:51:56;;;;;;;0.70;0.70;;;16.90;99.90;;;;;;4913459;29;20210;-96
2021/08/29 11:54:23;;;;;;;1.40;0.80;;;16.90;99.90;;;;;;4912504;29;20258;-95
2021/08/29 11:56:50;;;;;;;1.65;0.80;;;16.80;99.90;;;;;;4913598;29;20669;-95
2021/08/29 11:59:37;;;;;;;0.80;0.80;;;16.80;99.90;;;;;;4911768;29;20250;-95
2021/08/29 12:02:10;;;;;;;1.83;1.25;;;16.90;99.90;;;;;;4908254;29;20238;-94
2021/08/29 12:04:37;;;;;;;1.85;0.98;;;16.80;99.90;;;;;;4909766;29;20191;-94
2021/08/29 12:07:08;;;;;;;1.42;1.00;;;16.70;99.90;;;;;;4909798;29;20251;-94
2021/08/29 12:09:43;;;;;;;1.08;0.98;;;16.70;99.90;;;;;;4908169;29;20281;-95
2021/08/29 12:12:19;;;;;;;1.00;0.90;;;16.70;99.90;;;;;;4906998;29;20210;-95
2021/08/29 12:14:51;;;;;;;1.10;1.00;;;16.70;99.90;;;;;;4908236;29;20286;-93
2021/08/29 12:17:19;;;;;;;4.32;1.00;;;16.60;99.90;;;;;;4907802;29;20283;-94
2021/08/29 12:19:50;;;;;;;2.67;1.10;;;16.70;99.90;;;;;;4907997;29;20187;-94
2021/08/29 12:22:23;;;;;;;1.00;0.90;;;16.70;99.90;;;;;;4908630;29;20211;-95
2021/08/29 12:24:50;;;;;;;1.35;1.00;;;16.60;99.90;;;;;;4908902;29;20654;-93
2021/08/29 12:27:21;;;;;;;1.02;0.93;;;16.60;99.90;;;;;;4908159;29;20251;-94
2021/08/29 12:29:53;;;;;;;0.90;0.90;;;16.70;99.90;;;;;;4908029;29;20198;-94
2021/08/29 12:32:28;;;;;;;1.80;1.15;;;16.70;99.90;;;;;;4908824;29;20240;-94
2021/08/29 12:35:08;;;;;;;1.05;0.93;;;16.80;99.90;;;;;;4908698;29;20191;-94
2021/08/29 12:37:42;;;;;;;1.08;1.00;;;16.80;99.90;;;;;;4908967;29;20218;-95
2021/08/29 12:40:16;;;;;;;1.52;1.02;;;16.90;99.90;;;;;;4909113;29;20199;-95
2021/08/29 12:42:46;;;;;;;0.85;0.82;;;17.00;99.90;;;;;;4909870;29;20180;-95
2021/08/29 12:45:16;;;;;;;2.80;1.05;;;17.10;99.90;;;;;;4908544;29;20188;-94
2021/08/29 12:47:47;;;;;;;1.60;0.98;;;17.20;99.90;;;;;;4907560;29;20190;-93
2021/08/29 12:50:19;;;;;;;2.42;1.08;;;17.30;99.90;;;;;;4909306;29;20226;-94
2021/08/29 12:52:53;;;;;;;1.25;1.15;;;17.30;99.90;;;;;;4908165;29;20267;-95
2021/08/29 12:55:22;;;;;;;1.10;1.00;;;17.40;99.90;;;;;;4908790;29;20198;-95
2021/08/29 12:58:08;;;;;;;1.63;1.20;;;17.50;99.90;;;;;;4909000;29;20215;-95
2021/08/29 13:00:41;;;;;;;2.72;1.30;;;17.60;99.90;;;;;;4908185;29;20217;-94
2021/08/29 13:03:09;;;;;;;2.40;1.10;;;17.60;99.90;;;;;;4908689;29;20226;-95
2021/08/29 13:05:46;;;;;;;3.20;1.33;;;17.60;99.90;;;;;;4908485;29;20291;-93
2021/08/29 13:08:47;;;;;;;1.30;1.20;;;17.60;99.90;;;;;;4906449;29;20195;-94
2021/08/29 13:11:16;;;;;;;1.10;1.00;;;17.70;99.90;;;;;;4902457;29;20210;-94
2021/08/29 13:13:59;;;;;;;1.33;1.23;;;17.80;99.90;;;;;;4912204;29;20191;-95
2021/08/29 13:16:40;;;;;;;8.52;1.45;;;17.80;99.90;;;;;;4910255;29;20218;-95
2021/08/29 13:19:06;;;;;;;1.92;1.10;;;17.90;99.90;;;;;;4909592;29;20650;-96
2021/08/29 13:21:40;;;;;;;1.20;1.10;;;17.90;99.90;;;;;;4909234;29;20674;-95